createdAt,value
2023-04-13T00:02:09.567Z,98322.47
2023-04-13T00:04:39.714Z,98317.69
2023-04-13T00:07:06.708Z,98315.09
2023-04-13T00:09:37.635Z,98314.94
2023-04-13T00:12:05.576Z,98319.50
2023-04-13T00:14:34.172Z,98313.97
2023-04-13T00:17:04.001Z,98318.38
2023-04-13T00:19:37.954Z,98311.38
2023-04-13T00:22:05.669Z,98312.47
2023-04-13T00:24:33.951Z,98317.03
2023-04-13T00:27:03.058Z,98315.78
2023-04-13T00:29:32.878Z,98307.09
2023-04-13T00:32:00.176Z,98317.19
2023-04-13T00:34:42.940Z,98313.50
2023-04-13T00:37:14.990Z,98309.78
2023-04-13T00:39:50.301Z,98311.63
2023-04-13T00:42:20.003Z,98310.13
2023-04-13T00:44:52.068Z,98317.69
2023-04-13T00:47:28.973Z,98317.88
2023-04-13T00:50:04.800Z,98309.06
2023-04-13T00:52:44.513Z,98314.59
2023-04-13T00:55:20.961Z,98314.41
2023-04-13T00:57:53.515Z,98315.66
2023-04-13T01:00:25.885Z,98320.63
2023-04-13T01:02:57.446Z,98312.56
2023-04-13T01:05:32.477Z,98320.84
2023-04-13T01:08:20.560Z,98322.72
2023-04-13T01:11:04.417Z,98325.53
2023-04-13T01:13:48.554Z,98328.63
2023-04-13T01:16:22.020Z,98331.19
2023-04-13T01:18:54.855Z,98330.47
2023-04-13T01:21:31.227Z,98340.03
2023-04-13T01:24:18.032Z,98339.28
2023-04-13T01:26:55.006Z,98342.78
2023-04-13T01:29:25.244Z,98348.50
2023-04-13T01:31:59.108Z,98347.41
2023-04-13T01:34:31.477Z,98354.63
2023-04-13T01:37:04.281Z,98356.72
2023-04-13T01:39:33.395Z,98371.09
2023-04-13T01:42:10.735Z,98375.72
2023-04-13T01:44:41.377Z,98371.16
2023-04-13T01:47:23.245Z,98370.25
2023-04-13T01:50:04.396Z,98353.53
2023-04-13T01:52:51.757Z,98369.63
2023-04-13T01:55:19.938Z,98370.97
2023-04-13T01:57:57.795Z,98368.03
2023-04-13T02:00:32.110Z,98359.56
2023-04-13T02:03:03.570Z,98365.09
2023-04-13T02:05:33.174Z,98357.34
2023-04-13T02:08:03.848Z,98365.78
2023-04-13T02:10:41.581Z,98358.06
2023-04-13T02:13:10.567Z,98355.13
2023-04-13T02:15:40.196Z,98358.63
2023-04-13T02:18:08.195Z,98365.28
2023-04-13T02:20:52.950Z,98361.41
2023-04-13T02:23:22.075Z,98360.31
2023-04-13T02:25:51.060Z,98361.44
2023-04-13T02:28:30.674Z,98360.34
2023-04-13T02:30:59.937Z,98352.03
2023-04-13T02:33:32.866Z,98358.53
2023-04-13T02:36:04.713Z,98356.31
2023-04-13T02:38:44.365Z,98349.84
2023-04-13T02:41:24.912Z,98359.59
2023-04-13T02:43:53.586Z,98350.38
2023-04-13T02:46:25.011Z,98357.03
2023-04-13T02:48:59.584Z,98347.03
2023-04-13T02:51:45.989Z,98358.44
2023-04-13T02:54:20.251Z,98350.72
2023-04-13T02:56:49.471Z,98358.63
2023-04-13T02:59:25.896Z,98347.94
2023-04-13T03:01:53.123Z,98349.19
2023-04-13T03:04:25.341Z,98349.38
2023-04-13T03:06:58.803Z,98349.88
2023-04-13T03:09:29.585Z,98353.94
2023-04-13T03:12:01.089Z,98358.16
2023-04-13T03:14:29.930Z,98351.66
2023-04-13T03:17:09.301Z,98359.03
2023-04-13T03:19:40.399Z,98362.34
2023-04-13T03:22:11.320Z,98375.06
2023-04-13T03:24:48.038Z,98361.41
2023-04-13T03:27:25.385Z,98369.50
2023-04-13T03:30:00.854Z,98372.25
2023-04-13T03:32:33.937Z,98367.84
2023-04-13T03:35:05.893Z,98379.63
2023-04-13T03:37:43.292Z,98376.88
2023-04-13T03:40:31.163Z,98382.19
2023-04-13T03:43:04.354Z,98380.34
2023-04-13T03:45:39.899Z,98381.09
2023-04-13T03:48:13.218Z,98393.09
2023-04-13T03:50:49.060Z,98393.09
2023-04-13T03:53:21.644Z,98387.75
2023-04-13T03:55:54.319Z,98403.59
2023-04-13T03:58:24.914Z,98408.59
2023-04-13T04:00:56.043Z,98415.03
2023-04-13T04:03:40.562Z,98417.63
2023-04-13T04:06:12.765Z,98427.19
2023-04-13T04:08:50.622Z,98437.47
2023-04-13T04:11:37.269Z,98431.03
2023-04-13T04:14:06.940Z,98436.22
2023-04-13T04:16:43.303Z,98438.63
2023-04-13T04:19:14.038Z,98448.75
2023-04-13T04:21:47.486Z,98451.50
2023-04-13T04:24:23.115Z,98447.28
2023-04-13T04:26:56.121Z,98448.75
2023-04-13T04:29:35.295Z,98447.31
2023-04-13T04:32:16.385Z,98461.31
2023-04-13T04:34:48.335Z,98455.78
2023-04-13T04:37:24.150Z,98453.97
2023-04-13T04:40:10.282Z,98459.31
2023-04-13T04:42:40.315Z,98457.03
2023-04-13T04:45:17.047Z,98466.41
2023-04-13T04:47:53.824Z,98459.56
2023-04-13T04:50:26.990Z,98460.63
2023-04-13T04:53:17.773Z,98460.44
2023-04-13T04:55:52.809Z,98453.41
2023-04-13T04:58:40.009Z,98459.50
2023-04-13T05:01:07.375Z,98459.09
2023-04-13T05:03:37.291Z,98459.84
2023-04-13T05:06:42.347Z,98475.88
2023-04-13T05:09:19.433Z,98480.25
2023-04-13T05:11:54.755Z,98489.28
2023-04-13T05:14:23.420Z,98495.53
2023-04-13T05:16:52.979Z,98500.34
2023-04-13T05:19:43.151Z,98505.16
2023-04-13T05:22:15.608Z,98500.00
2023-04-13T05:24:52.810Z,98504.78
2023-04-13T05:27:25.363Z,98514.53
2023-04-13T05:29:59.407Z,98514.00
2023-04-13T05:32:27.216Z,98517.50
2023-04-13T05:35:00.171Z,98510.34
2023-04-13T05:37:30.795Z,98518.13
2023-04-13T05:40:02.737Z,98510.22
2023-04-13T05:42:35.355Z,98518.72
2023-04-13T05:45:09.974Z,98525.38
2023-04-13T05:47:47.380Z,98530.75
2023-04-13T05:50:17.440Z,98538.31
2023-04-13T05:52:47.321Z,98529.34
2023-04-13T05:55:20.635Z,98529.34
2023-04-13T05:57:56.728Z,98535.94
2023-04-13T06:00:28.059Z,98531.38
2023-04-13T06:03:04.256Z,98536.69
2023-04-13T06:05:36.849Z,98546.66
2023-04-13T06:08:17.639Z,98546.28
2023-04-13T06:10:46.497Z,98546.81
2023-04-13T06:13:15.398Z,98553.06
2023-04-13T06:15:44.828Z,98556.16
2023-04-13T06:18:16.496Z,98549.91
2023-04-13T06:20:45.571Z,98552.69
2023-04-13T06:23:15.455Z,98552.34
2023-04-13T06:25:43.224Z,98558.03
2023-04-13T06:28:13.316Z,98559.00
2023-04-13T06:30:47.926Z,98562.50
2023-04-13T06:33:16.471Z,98559.41
2023-04-13T06:35:45.224Z,98558.91
2023-04-13T06:38:15.031Z,98568.91
2023-04-13T06:41:03.611Z,98562.06
2023-04-13T06:43:37.457Z,98574.09
2023-04-13T06:46:27.814Z,98572.66
2023-04-13T06:49:02.225Z,98571.19
2023-04-13T06:51:35.022Z,98570.63
2023-04-13T06:54:06.136Z,98576.72
2023-04-13T06:56:45.600Z,98579.84
2023-04-13T06:59:20.635Z,98587.47
2023-04-13T07:01:55.896Z,98594.66
2023-04-13T07:04:29.671Z,98589.47
2023-04-13T07:07:00.758Z,98598.13
2023-04-13T07:09:28.204Z,98597.06
2023-04-13T07:12:04.777Z,98597.97
2023-04-13T07:14:34.985Z,98600.53
2023-04-13T07:17:13.177Z,98598.50
2023-04-13T07:19:50.182Z,98602.84
2023-04-13T07:22:23.375Z,98606.25
2023-04-13T07:24:54.499Z,98607.84
2023-04-13T07:27:23.633Z,98610.38
2023-04-13T07:29:53.194Z,98612.94
2023-04-13T07:32:30.244Z,98619.22
2023-04-13T07:35:02.644Z,98619.44
2023-04-13T07:37:35.226Z,98617.69
2023-04-13T07:40:07.064Z,98624.81
2023-04-13T07:42:37.492Z,98627.16
2023-04-13T07:45:07.929Z,98613.75
2023-04-13T07:47:35.528Z,98619.78
2023-04-13T07:50:12.333Z,98625.00
2023-04-13T07:52:40.751Z,98629.00
2023-04-13T07:55:08.876Z,98639.56
2023-04-13T07:57:44.214Z,98635.88
2023-04-13T08:00:21.628Z,98641.63
2023-04-13T08:02:56.711Z,98637.91
2023-04-13T08:05:28.613Z,98628.50
2023-04-13T08:07:58.380Z,98638.94
2023-04-13T08:10:30.326Z,98642.78
2023-04-13T08:13:02.184Z,98645.34
2023-04-13T08:15:29.437Z,98644.78
2023-04-13T08:18:07.079Z,98645.16
2023-04-13T08:20:38.020Z,98647.97
2023-04-13T08:23:12.671Z,98650.84
2023-04-13T08:25:43.228Z,98645.81
2023-04-13T08:28:10.920Z,98648.53
2023-04-13T08:30:40.349Z,98649.63
2023-04-13T08:33:12.642Z,98645.91
2023-04-13T08:35:42.397Z,98640.97
2023-04-13T08:38:14.178Z,98635.69
2023-04-13T08:40:50.520Z,98639.06
2023-04-13T08:43:27.992Z,98634.50
2023-04-13T08:45:58.561Z,98643.13
2023-04-13T08:48:39.023Z,98646.25
2023-04-13T08:51:15.073Z,98653.41
2023-04-13T08:53:43.338Z,98645.66
2023-04-13T08:56:14.812Z,98638.91
2023-04-13T08:58:46.244Z,98637.13
2023-04-13T09:01:17.230Z,98643.78
2023-04-13T09:03:55.995Z,98641.81
2023-04-13T09:06:26.044Z,98640.56
2023-04-13T09:08:59.563Z,98645.31
2023-04-13T09:11:31.311Z,98640.78
2023-04-13T09:14:02.627Z,98645.44
2023-04-13T09:16:31.275Z,98640.00
2023-04-13T09:19:05.201Z,98629.16
2023-04-13T09:21:39.545Z,98630.81
2023-04-13T09:24:13.133Z,98630.81
2023-04-13T09:26:48.863Z,98631.19
2023-04-13T09:29:22.036Z,98623.59
2023-04-13T09:31:51.643Z,98634.69
2023-04-13T09:34:28.763Z,98632.47
2023-04-13T09:37:01.611Z,98620.19
2023-04-13T09:39:30.024Z,98624.84
2023-04-13T09:42:18.914Z,98630.59
2023-04-13T09:45:00.328Z,98634.88
2023-04-13T09:47:36.326Z,98642.50
2023-04-13T09:50:19.932Z,98635.25
2023-04-13T09:52:58.750Z,98633.38
2023-04-13T09:55:28.038Z,98633.84
2023-04-13T09:57:56.622Z,98630.50
2023-04-13T10:00:26.000Z,98634.69
2023-04-13T10:02:58.321Z,98638.28
2023-04-13T10:05:35.595Z,98626.84
2023-04-13T10:08:15.280Z,98632.38
2023-04-13T10:10:50.338Z,98628.38
2023-04-13T10:13:24.117Z,98623.94
2023-04-13T10:16:11.346Z,98623.94
2023-04-13T10:19:00.603Z,98623.78
2023-04-13T10:21:42.054Z,98615.81
2023-04-13T10:24:19.534Z,98615.84
2023-04-13T10:26:53.850Z,98615.47
2023-04-13T10:29:28.125Z,98614.94
2023-04-13T10:31:57.366Z,98628.97
2023-04-13T10:34:46.591Z,98622.53
2023-04-13T10:37:19.854Z,98625.09
2023-04-13T10:39:54.904Z,98632.47
2023-04-13T10:42:27.557Z,98625.22
2023-04-13T10:44:57.762Z,98627.25
2023-04-13T10:47:42.285Z,98628.56
2023-04-13T10:50:31.701Z,98614.69
2023-04-13T10:53:02.082Z,98609.72
2023-04-13T10:55:31.261Z,98611.59
2023-04-13T10:58:04.806Z,98614.00
2023-04-13T11:03:18.647Z,98624.34
2023-04-13T11:06:00.466Z,98617.31
2023-04-13T11:08:28.345Z,98618.03
2023-04-13T11:10:59.458Z,98611.53
2023-04-13T11:13:32.497Z,98618.13
2023-04-13T11:16:13.362Z,98610.44
2023-04-13T11:18:49.536Z,98612.28
2023-04-13T11:21:18.265Z,98605.28
2023-04-13T11:23:52.921Z,98599.34
2023-04-13T11:26:30.937Z,98595.66
2023-04-13T11:29:04.242Z,98589.72
2023-04-13T11:31:39.381Z,98599.00
2023-04-13T11:34:12.054Z,98606.19
2023-04-13T11:36:43.383Z,98598.06
2023-04-13T11:39:36.843Z,98603.59
2023-04-13T11:42:05.188Z,98610.53
2023-04-13T11:44:38.024Z,98590.91
2023-04-13T11:47:06.195Z,98601.13
2023-04-13T11:49:37.664Z,98601.38
2023-04-13T11:52:05.019Z,98606.13
2023-04-13T11:54:33.358Z,98607.59
2023-04-13T11:57:00.851Z,98605.50
2023-04-13T11:59:33.758Z,98615.19
2023-04-13T12:02:15.500Z,98613.84
2023-04-13T12:04:51.395Z,98617.03
2023-04-13T12:07:19.783Z,98628.84
2023-04-13T12:15:13.707Z,98625.19
2023-04-13T12:17:58.172Z,98625.47
2023-04-13T12:20:39.028Z,98628.50
2023-04-13T12:23:23.247Z,98633.84
2023-04-13T12:25:56.730Z,98634.16
2023-04-13T12:28:37.448Z,98638.47
2023-04-13T12:31:08.993Z,98634.03
2023-04-13T12:33:37.931Z,98633.69
2023-04-13T12:36:16.366Z,98640.09
2023-04-13T12:38:44.599Z,98627.28
2023-04-13T12:41:14.904Z,98631.13
2023-04-13T12:43:55.474Z,98641.22
2023-04-13T12:46:29.384Z,98650.47
2023-04-13T12:48:56.813Z,98644.94
2023-04-13T12:51:30.454Z,98643.00
2023-04-13T12:54:02.608Z,98630.47
2023-04-13T12:56:33.694Z,98643.69
2023-04-13T12:59:03.355Z,98638.72
2023-04-13T13:01:37.320Z,98641.56
2023-04-13T13:04:07.598Z,98648.03
2023-04-13T13:06:39.241Z,98640.81
2023-04-13T13:09:07.845Z,98644.09
2023-04-13T13:11:38.039Z,98649.28
2023-04-13T13:14:13.529Z,98648.59
2023-04-13T13:16:55.918Z,98643.19
2023-04-13T13:19:25.143Z,98642.31
2023-04-13T13:21:54.658Z,98639.53
2023-04-13T13:24:25.253Z,98640.28
2023-04-13T13:29:38.322Z,98632.50
2023-04-13T13:32:07.273Z,98628.69
2023-04-13T13:34:38.399Z,98631.31
2023-04-13T13:37:07.451Z,98636.50
2023-04-13T13:39:35.885Z,98629.44
2023-04-13T13:42:13.373Z,98632.56
2023-04-13T13:44:41.636Z,98632.28
2023-04-13T13:47:10.107Z,98639.06
2023-04-13T13:49:41.150Z,98625.72
2023-04-13T13:52:25.601Z,98633.13
2023-04-13T13:54:56.635Z,98637.09
2023-04-13T13:57:28.034Z,98628.50
2023-04-13T13:59:59.968Z,98641.28
2023-04-13T14:02:29.003Z,98638.66
2023-04-13T14:04:57.126Z,98645.16
2023-04-13T14:07:28.978Z,98638.44
2023-04-13T14:09:58.348Z,98637.94
2023-04-13T14:12:26.784Z,98636.63
2023-04-13T14:14:57.925Z,98638.53
2023-04-13T14:17:34.122Z,98636.25
2023-04-13T14:20:02.695Z,98636.31
2023-04-13T14:22:38.898Z,98630.53
2023-04-13T14:25:09.557Z,98629.66
2023-04-13T14:27:37.532Z,98631.63
2023-04-13T14:30:08.777Z,98637.94
2023-04-13T14:32:40.142Z,98629.66
2023-04-13T14:35:08.843Z,98627.56
2023-04-13T14:37:41.068Z,98635.22
2023-04-13T14:40:19.044Z,98634.81
2023-04-13T14:42:53.799Z,98638.47
2023-04-13T14:45:30.915Z,98636.53
2023-04-13T14:48:03.791Z,98622.94
2023-04-13T14:50:33.293Z,98618.44
2023-04-13T14:53:08.085Z,98617.97
2023-04-13T14:55:37.216Z,98622.22
2023-04-13T14:58:09.418Z,98627.00
2023-04-13T15:00:46.815Z,98634.47
2023-04-13T15:03:20.486Z,98640.28
2023-04-13T15:06:01.317Z,98628.88
2023-04-13T15:08:35.546Z,98627.66
2023-04-13T15:11:04.419Z,98624.53
2023-04-13T15:13:33.958Z,98625.56
2023-04-13T15:16:03.486Z,98629.25
2023-04-13T15:18:35.793Z,98636.22
2023-04-13T15:21:04.105Z,98637.19
2023-04-13T15:23:38.314Z,98648.97
2023-04-13T15:26:16.114Z,98658.56
2023-04-13T15:28:45.550Z,98658.38
2023-04-13T15:31:12.750Z,98655.19
2023-04-13T15:33:43.014Z,98653.66
2023-04-13T15:36:21.445Z,98661.34
2023-04-13T15:38:53.384Z,98663.63
2023-04-13T15:41:27.263Z,98666.88
2023-04-13T15:43:55.856Z,98662.56
2023-04-13T15:46:27.577Z,98656.81
2023-04-13T15:48:57.033Z,98657.38
2023-04-13T15:51:31.164Z,98641.50
2023-04-13T15:54:00.578Z,98647.91
2023-04-13T15:56:31.246Z,98640.03
2023-04-13T15:59:05.581Z,98644.06
2023-04-13T16:01:48.884Z,98639.03
2023-04-13T16:04:22.281Z,98628.63
2023-04-13T16:07:05.012Z,98632.13
2023-04-13T16:09:39.576Z,98633.06
2023-04-13T16:12:11.957Z,98628.47
2023-04-13T16:14:48.212Z,98630.91
2023-04-13T16:17:19.204Z,98631.13
2023-04-13T16:19:50.804Z,98630.06
2023-04-13T16:22:22.660Z,98628.03
2023-04-13T16:24:54.729Z,98626.06
2023-04-13T16:27:26.096Z,98622.44
2023-04-13T16:29:54.868Z,98627.56
2023-04-13T16:32:24.779Z,98615.22
2023-04-13T16:35:07.698Z,98610.97
2023-04-13T16:37:43.732Z,98612.38
2023-04-13T16:40:18.308Z,98623.56
2023-04-13T16:42:47.164Z,98623.56
2023-04-13T16:45:16.105Z,98631.22
2023-04-13T16:47:47.641Z,98624.69
2023-04-13T16:50:18.031Z,98636.69
2023-04-13T16:52:45.787Z,98627.88
2023-04-13T16:55:15.970Z,98638.88
2023-04-13T16:57:43.938Z,98644.50
2023-04-13T17:00:15.201Z,98648.13
2023-04-13T17:02:48.773Z,98648.63
2023-04-13T17:05:21.585Z,98653.81
2023-04-13T17:07:51.254Z,98658.19
2023-04-13T17:10:21.309Z,98660.75
2023-04-13T17:12:58.727Z,98654.47
2023-04-13T17:21:44.684Z,98654.25
2023-04-13T17:24:17.420Z,98647.28
2023-04-13T17:26:45.607Z,98643.53
2023-04-13T17:29:19.800Z,98641.53
2023-04-13T17:31:51.781Z,98643.34
2023-04-13T17:34:22.910Z,98641.44
2023-04-13T17:36:54.436Z,98645.78
2023-04-13T17:39:26.368Z,98646.31
2023-04-13T17:41:55.512Z,98649.41
2023-04-13T17:44:24.236Z,98647.38
2023-04-13T17:46:54.972Z,98669.75
2023-04-13T17:49:25.220Z,98675.28
2023-04-13T17:52:02.393Z,98683.16
2023-04-13T17:54:30.355Z,98683.88
2023-04-13T17:57:00.326Z,98675.91
2023-04-13T17:59:32.321Z,98672.66
2023-04-13T18:02:06.654Z,98669.34
2023-04-13T18:04:37.759Z,98671.56
2023-04-13T18:07:08.290Z,98665.84
2023-04-13T18:09:40.030Z,98661.50
2023-04-13T18:12:08.136Z,98656.91
2023-04-13T18:14:38.025Z,98646.19
2023-04-13T18:17:11.303Z,98653.84
2023-04-13T18:19:44.050Z,98663.38
2023-04-13T18:22:15.805Z,98657.13
2023-04-13T18:24:47.826Z,98670.19
2023-04-13T18:27:19.641Z,98668.69
2023-04-13T18:29:49.573Z,98680.44
2023-04-13T18:32:19.272Z,98689.69
2023-04-13T18:34:47.411Z,98681.22
2023-04-13T18:37:17.449Z,98692.53
2023-04-13T18:39:46.635Z,98688.50
2023-04-13T18:42:16.048Z,98692.00
2023-04-13T18:44:49.638Z,98688.00
2023-04-13T18:47:20.612Z,98676.22
2023-04-13T18:49:49.645Z,98680.97
2023-04-13T18:52:22.532Z,98674.22
2023-04-13T18:54:52.073Z,98682.28
2023-04-13T18:57:21.897Z,98686.06
2023-04-13T18:59:57.995Z,98677.78
2023-04-13T19:02:27.765Z,98676.53
2023-04-13T19:05:04.626Z,98680.78
2023-04-13T19:07:38.825Z,98671.88
2023-04-13T19:10:11.825Z,98679.28
2023-04-13T19:12:43.878Z,98688.09
2023-04-13T19:15:13.751Z,98679.81
2023-04-13T19:17:44.705Z,98662.53
2023-04-13T19:20:14.757Z,98655.00
2023-04-13T19:22:44.258Z,98652.78
2023-04-13T19:25:20.079Z,98641.00
2023-04-13T19:27:55.657Z,98628.81
2023-04-13T19:30:25.378Z,98622.97
2023-04-13T19:32:55.387Z,98624.25
2023-04-13T19:35:30.171Z,98640.25
2023-04-13T19:37:59.625Z,98641.50
2023-04-13T19:40:28.791Z,98649.06
2023-04-13T19:43:01.988Z,98660.59
2023-04-13T19:45:32.771Z,98661.03
2023-04-13T19:48:04.045Z,98663.25
2023-04-13T19:50:33.318Z,98661.25
2023-04-13T19:53:01.458Z,98661.78
2023-04-13T19:55:30.068Z,98651.91
2023-04-13T19:58:01.698Z,98635.69
2023-04-13T20:00:31.887Z,98626.88
2023-04-13T20:03:10.010Z,98625.41
2023-04-13T20:05:39.489Z,98624.66
2023-04-13T20:08:08.868Z,98626.47
2023-04-13T20:10:42.648Z,98622.44
2023-04-13T20:13:11.599Z,98614.38
2023-04-13T20:15:44.423Z,98621.69
2023-04-13T20:18:16.409Z,98620.72
2023-04-13T20:20:49.984Z,98618.91
2023-04-13T20:23:25.186Z,98618.41
2023-04-13T20:25:56.483Z,98609.63
2023-04-13T20:28:34.857Z,98589.03
2023-04-13T20:31:10.454Z,98581.28
2023-04-13T20:33:42.582Z,98570.59
2023-04-13T20:36:11.781Z,98575.78
2023-04-13T20:38:42.904Z,98569.19
2023-04-13T20:41:16.453Z,98568.78
2023-04-13T20:43:50.524Z,98560.00
2023-04-13T20:46:18.929Z,98568.34
2023-04-13T20:48:55.910Z,98562.84
2023-04-13T20:51:26.355Z,98559.34
2023-04-13T20:53:56.220Z,98548.53
2023-04-13T20:56:27.810Z,98555.84
2023-04-13T20:59:02.393Z,98547.38
2023-04-13T21:01:34.676Z,98553.38
2023-04-13T21:04:05.916Z,98552.44
2023-04-13T21:06:38.223Z,98562.72
2023-04-13T21:09:11.617Z,98559.22
2023-04-13T21:11:45.697Z,98554.78
2023-04-13T21:14:13.146Z,98550.31
2023-04-13T21:16:43.958Z,98547.13
2023-04-13T21:19:16.053Z,98548.50
2023-04-13T21:21:43.589Z,98545.31
2023-04-13T21:24:12.552Z,98532.59
2023-04-13T21:26:39.950Z,98534.41
2023-04-13T21:29:31.605Z,98530.69
2023-04-13T21:32:02.504Z,98528.03
2023-04-13T21:34:39.224Z,98529.41
2023-04-13T21:37:09.771Z,98524.22
2023-04-13T21:39:44.271Z,98526.97
2023-04-13T21:42:12.127Z,98523.78
2023-04-13T21:44:40.982Z,98514.56
2023-04-13T21:47:16.548Z,98515.06
2023-04-13T21:49:44.915Z,98510.09
2023-04-13T21:52:12.963Z,98506.72
2023-04-13T21:54:42.130Z,98505.97
2023-04-13T21:57:10.489Z,98505.75
2023-04-13T21:59:39.315Z,98506.81
2023-04-13T22:02:08.185Z,98505.09
2023-04-13T22:04:38.392Z,98506.13
2023-04-13T22:07:06.820Z,98492.59
2023-04-13T22:09:36.652Z,98485.38
2023-04-13T22:12:05.047Z,98497.69
2023-04-13T22:14:36.237Z,98486.66
2023-04-13T22:17:05.390Z,98485.91
2023-04-13T22:19:33.005Z,98493.97
2023-04-13T22:22:02.324Z,98495.75
2023-04-13T22:24:33.220Z,98487.78
2023-04-13T22:27:02.561Z,98488.84
2023-04-13T22:29:31.565Z,98486.31
2023-04-13T22:32:05.566Z,98488.63
2023-04-13T22:34:43.415Z,98487.47
2023-04-13T22:37:15.632Z,98482.25
2023-04-13T22:39:47.143Z,98478.22
2023-04-13T22:42:14.350Z,98478.97
2023-04-13T22:44:42.460Z,98460.78
2023-04-13T22:47:11.508Z,98456.53
2023-04-13T22:49:42.236Z,98454.00
2023-04-13T22:52:09.425Z,98445.81
2023-04-13T22:54:36.966Z,98438.19
2023-04-13T22:57:07.775Z,98428.75
2023-04-13T22:59:41.010Z,98418.81
2023-04-13T23:02:11.463Z,98410.56
2023-04-13T23:04:39.232Z,98398.91
2023-04-13T23:07:06.717Z,98394.66
2023-04-13T23:09:43.860Z,98380.91
2023-04-13T23:12:11.006Z,98380.16
2023-04-13T23:14:41.822Z,98375.94
2023-04-13T23:17:09.865Z,98370.75
2023-04-13T23:19:45.071Z,98369.25
2023-04-13T23:22:13.967Z,98371.25
2023-04-13T23:24:48.167Z,98367.78
2023-04-13T23:27:18.200Z,98371.78
2023-04-13T23:29:54.913Z,98373.06
2023-04-13T23:32:25.482Z,98378.56
2023-04-13T23:34:56.702Z,98366.28
2023-04-13T23:37:26.885Z,98372.75
2023-04-13T23:39:56.638Z,98378.56
2023-04-13T23:42:25.104Z,98380.78
2023-04-13T23:44:55.044Z,98376.03
2023-04-13T23:47:23.212Z,98373.50
2023-04-13T23:49:59.937Z,98375.94
2023-04-13T23:52:27.407Z,98368.00
2023-04-13T23:54:55.220Z,98370.00
2023-04-13T23:57:26.703Z,98364.28
